Time;durP1;ratioP1;P1;durP2;ratioP2;P2;SDS_P1;SDS_P2;PMS_P1;PMS_P2;Temp;Humidity;BMP_temperature;BMP_pressure;BME280_temperature;BME280_humidity;BME280_pressure;Samples;Min_cycle;Max_cycle;Signal;HPM_P1;HPM_P2
2021/01/23 00:01:10;;;;;;;4.62;2.62;;;;;;;7.77;58.90;95594.87;1732915;80;21514;-68
2021/01/23 00:03:38;;;;;;;3.30;2.75;;;;;;;7.89;58.84;95602.16;1728010;82;21140;-68
2021/01/23 00:06:05;;;;;;;4.35;2.85;;;;;;;7.93;58.69;95610.05;1717736;82;21153;-68
2021/01/23 00:08:33;;;;;;;5.17;2.92;;;;;;;8.02;58.60;95609.81;1705774;82;21143;-68
2021/01/23 00:11:01;;;;;;;3.10;2.60;;;;;;;8.14;58.40;95619.23;1725964;82;21203;-66
2021/01/23 00:13:30;;;;;;;4.22;2.42;;;;;;;8.21;58.31;95614.41;1685528;82;21274;-66
2021/01/23 00:15:57;;;;;;;3.67;2.42;;;;;;;8.24;58.44;95609.83;1705741;82;21479;-68
2021/01/23 00:18:25;;;;;;;3.60;2.27;;;;;;;8.34;58.27;95620.73;1706829;82;21584;-66
2021/01/23 00:20:53;;;;;;;2.90;2.10;;;;;;;8.43;58.15;95617.47;1720193;82;21604;-68
2021/01/23 00:23:21;;;;;;;3.33;2.20;;;;;;;8.41;58.16;95609.80;1674486;82;21109;-67
2021/01/23 00:25:49;;;;;;;3.15;2.40;;;;;;;8.28;58.41;95609.92;1712416;82;21159;-67
2021/01/23 00:28:17;;;;;;;3.02;2.15;;;;;;;8.20;58.69;95605.81;1712347;80;21122;-67
2021/01/23 00:30:46;;;;;;;2.92;2.45;;;;;;;8.22;58.83;95611.71;1704535;84;21122;-68
2021/01/23 00:33:16;;;;;;;5.55;2.60;;;;;;;8.25;58.87;95606.76;1710175;82;21116;-68
2021/01/23 00:35:44;;;;;;;3.45;2.42;;;;;;;8.29;58.86;95603.02;1709076;82;26494;-68
2021/01/23 00:38:12;;;;;;;3.00;2.17;;;;;;;8.34;58.78;95596.17;1705035;82;21264;-68
2021/01/23 00:40:40;;;;;;;7.35;2.33;;;;;;;8.38;58.70;95597.11;1723863;82;21141;-68
2021/01/23 00:43:08;;;;;;;4.20;2.30;;;;;;;8.42;58.75;95598.53;1715886;82;21081;-69
2021/01/23 00:45:35;;;;;;;2.98;2.22;;;;;;;8.45;58.79;95596.20;1707237;82;21117;-68
2021/01/23 00:48:10;;;;;;;4.30;2.33;;;;;;;8.42;58.70;95598.53;1707968;82;21136;-68
2021/01/23 00:50:39;;;;;;;4.65;2.47;;;;;;;8.38;58.87;95589.36;1717424;82;21201;-67
2021/01/23 00:53:08;;;;;;;4.35;2.80;;;;;;;8.42;59.01;95579.59;1702415;82;21557;-68
2021/01/23 00:55:36;;;;;;;2.55;1.98;;;;;;;8.44;59.29;95574.70;1721868;82;25396;-68
2021/01/23 00:58:04;;;;;;;2.83;2.02;;;;;;;8.47;59.29;95587.87;1712808;82;21120;-68
2021/01/23 01:00:33;;;;;;;3.30;2.53;;;;;;;8.48;59.26;95589.02;1714635;82;21180;-67
2021/01/23 01:03:01;;;;;;;7.53;3.85;;;;;;;8.46;58.97;95587.03;1699656;82;21803;-67
2021/01/23 01:05:37;;;;;;;5.40;3.10;;;;;;;8.42;58.90;95578.30;1717150;82;21632;-68
2021/01/23 01:08:05;;;;;;;4.30;2.80;;;;;;;8.35;59.25;95580.55;1719630;82;21169;-67
2021/01/23 01:10:33;;;;;;;6.42;3.90;;;;;;;8.32;59.58;95578.67;1725456;80;21173;-67
2021/01/23 01:13:03;;;;;;;4.90;3.35;;;;;;;8.35;59.40;95578.44;1726784;83;21174;-68
2021/01/23 01:15:30;;;;;;;3.30;2.70;;;;;;;8.38;59.39;95578.20;1736505;82;21322;-67
2021/01/23 01:17:58;;;;;;;4.33;2.37;;;;;;;8.38;59.29;95573.04;1725041;82;21494;-67
2021/01/23 01:20:25;;;;;;;2.47;2.27;;;;;;;8.21;60.17;95574.36;1730505;82;21177;-67
2021/01/23 01:22:53;;;;;;;4.17;2.90;;;;;;;8.06;60.92;95581.52;1719513;82;21198;-67
2021/01/23 01:25:21;;;;;;;3.83;2.35;;;;;;;7.93;60.72;95579.05;1735262;81;21098;-68
2021/01/23 01:27:49;;;;;;;3.45;2.27;;;;;;;7.88;61.35;95576.81;1703236;84;22052;-68
2021/01/23 01:30:18;;;;;;;5.53;2.40;;;;;;;7.96;61.47;95580.11;1726635;82;21941;-68
2021/01/23 01:32:46;;;;;;;2.75;1.90;;;;;;;8.00;61.47;95581.51;1716434;82;21517;-62
2021/01/23 01:35:13;;;;;;;4.22;2.20;;;;;;;8.06;61.68;95583.62;1720786;82;22069;-67
2021/01/23 01:37:41;;;;;;;2.83;1.85;;;;;;;8.13;61.74;95578.81;1705600;82;21616;-68
2021/01/23 01:40:11;;;;;;;3.25;2.17;;;;;;;8.17;61.75;95556.95;1681675;84;21283;-67
2021/01/23 01:42:38;;;;;;;3.42;2.10;;;;;;;8.18;61.36;95577.17;1706702;82;21553;-68
2021/01/23 01:45:08;;;;;;;2.22;1.60;;;;;;;8.13;61.67;95580.11;1696801;83;21182;-68
2021/01/23 01:47:37;;;;;;;2.27;1.90;;;;;;;8.09;61.84;95569.64;1717769;82;21133;-65
2021/01/23 01:50:13;;;;;;;;;;;;;;;8.03;61.93;95572.23;1690847;83;21128;-67
2021/01/23 01:52:44;;;;;;;4.22;2.83;;;;;;;7.96;61.93;95576.69;1696097;81;21413;-67
2021/01/23 01:55:12;;;;;;;4.42;2.10;;;;;;;7.85;62.04;95578.33;1711870;83;21687;-69
2021/01/23 01:57:41;;;;;;;2.98;2.37;;;;;;;7.81;62.68;95564.02;1708049;83;21236;-67
2021/01/23 02:00:10;;;;;;;4.97;3.10;;;;;;;7.89;62.82;95564.27;1699061;82;21161;-67
2021/01/23 02:02:59;;;;;;;6.20;3.05;;;;;;;7.97;62.44;95564.95;1697069;83;21092;-67
2021/01/23 02:06:05;;;;;;;5.83;2.55;;;;;;;7.99;62.24;95564.83;1672666;83;21221;-66
2021/01/23 02:08:41;;;;;;;4.80;2.10;;;;;;;8.02;62.26;95569.77;1698078;83;21786;-67
2021/01/23 02:11:36;;;;;;;3.02;2.30;;;;;;;7.99;62.32;95564.83;1705205;83;21077;-68
2021/01/23 02:14:37;;;;;;;2.92;2.45;;;;;;;7.99;62.27;95568.23;1714648;83;21125;-67
2021/01/23 02:17:09;;;;;;;5.03;2.10;;;;;;;8.01;62.43;95572.83;1723224;83;21109;-68
2021/01/23 02:20:05;;;;;;;4.70;2.15;;;;;;;7.98;62.48;95568.38;1709009;83;21473;-68
2021/01/23 02:23:10;;;;;;;3.17;1.92;;;;;;;7.96;62.58;95572.36;1696814;83;21179;-67
2021/01/23 02:25:49;;;;;;;3.67;1.90;;;;;;;7.98;62.61;95574.35;1717598;83;21136;-67
2021/01/23 02:28:20;;;;;;;4.50;1.90;;;;;;;7.97;62.69;95580.45;1699024;83;21155;-67
2021/01/23 02:31:09;;;;;;;2.90;1.90;;;;;;;7.90;63.05;95563.78;1703824;83;21509;-67
2021/01/23 02:33:37;;;;;;;2.98;1.82;;;;;;;7.80;63.26;95562.37;1702313;83;21446;-68
2021/01/23 02:36:07;;;;;;;3.65;1.82;;;;;;;7.69;63.56;95563.64;1666796;84;21174;-69
2021/01/23 02:38:51;;;;;;;2.90;1.80;;;;;;;7.64;63.91;95564.47;1705183;82;21120;-67
2021/01/23 02:41:18;;;;;;;2.33;1.90;;;;;;;7.63;63.93;95562.36;1727640;82;21565;-67
2021/01/23 02:43:47;;;;;;;4.22;2.00;;;;;;;7.68;63.86;95559.41;1731201;82;21148;-67
2021/01/23 02:46:17;;;;;;;5.22;2.22;;;;;;;7.71;63.76;95561.77;1726119;82;21545;-67
2021/01/23 02:48:47;;;;;;;2.37;1.70;;;;;;;7.72;63.71;95553.09;1715841;82;21576;-67
2021/01/23 02:52:02;;;;;;;3.25;2.02;;;;;;;7.73;63.65;95554.74;1688394;84;21172;-68
2021/01/23 02:54:46;;;;;;;3.27;1.98;;;;;;;7.73;63.61;95557.33;1721951;82;21066;-67
2021/01/23 02:57:13;;;;;;;2.90;1.50;;;;;;;7.63;63.84;95565.39;1734840;82;21126;-67
2021/01/23 02:59:43;;;;;;;3.40;1.50;;;;;;;7.64;63.82;95570.92;1730511;81;21150;-68
2021/01/23 03:02:12;;;;;;;3.67;2.08;;;;;;;7.69;63.73;95574.78;1704550;82;21195;-67
2021/01/23 03:04:42;;;;;;;3.27;2.30;;;;;;;7.70;63.58;95575.63;1701038;83;21513;-67
2021/01/23 03:07:11;;;;;;;1.98;1.67;;;;;;;7.69;63.57;95575.27;1718649;81;21076;-67
2021/01/23 03:09:40;;;;;;;5.37;1.92;;;;;;;7.68;63.59;95577.48;1694948;80;21077;-66
2021/01/23 03:12:10;;;;;;;6.03;2.27;;;;;;;7.68;63.66;95576.19;1712336;83;21524;-68
2021/01/23 03:14:38;;;;;;;2.75;1.87;;;;;;;7.68;63.71;95577.03;1672979;83;21081;-67
2021/01/23 03:17:06;;;;;;;2.90;2.10;;;;;;;7.66;63.68;95572.43;1705016;81;21132;-67
2021/01/23 03:19:33;;;;;;;5.05;3.10;;;;;;;7.65;63.55;95576.45;1703398;83;21604;-67
2021/01/23 03:22:01;;;;;;;4.92;2.30;;;;;;;7.65;63.73;95574.67;1723685;81;21077;-67
2021/01/23 03:24:30;;;;;;;2.75;2.27;;;;;;;7.64;63.69;95570.92;1718334;83;21766;-67
2021/01/23 03:26:57;;;;;;;2.98;1.85;;;;;;;7.66;63.65;95571.14;1708658;81;22015;-68
2021/01/23 03:29:25;;;;;;;3.27;1.92;;;;;;;7.70;63.59;95563.53;1707321;83;21095;-67
2021/01/23 03:31:53;;;;;;;4.37;2.40;;;;;;;7.74;63.35;95549.44;1719145;83;21153;-67
2021/01/23 03:34:21;;;;;;;6.00;2.47;;;;;;;7.79;63.15;95559.90;1712635;83;21065;-67
2021/01/23 03:36:49;;;;;;;4.65;3.00;;;;;;;7.80;62.96;95561.08;1701817;83;22154;-67
2021/01/23 03:39:16;;;;;;;7.35;3.22;;;;;;;7.82;62.77;95556.61;1701026;83;21554;-67
2021/01/23 03:41:44;;;;;;;4.53;2.70;;;;;;;7.82;62.60;95546.28;1708388;81;21133;-67
2021/01/23 03:44:12;;;;;;;7.75;3.12;;;;;;;7.76;62.36;95545.45;1716596;82;21525;-66
2021/01/23 03:46:40;;;;;;;3.87;2.40;;;;;;;7.68;62.27;95544.77;1697949;82;21073;-66
2021/01/23 03:49:09;;;;;;;3.62;2.10;;;;;;;7.63;62.55;95542.16;1702793;83;21314;-67
2021/01/23 03:51:37;;;;;;;4.72;2.67;;;;;;;7.63;62.56;95542.16;1718945;83;21089;-66
2021/01/23 03:54:05;;;;;;;6.97;2.63;;;;;;;7.63;62.47;95531.38;1719814;82;21165;-67
2021/01/23 03:56:33;;;;;;;3.55;2.67;;;;;;;7.64;62.47;95533.00;1718840;83;21188;-67
2021/01/23 03:59:00;;;;;;;3.98;2.08;;;;;;;7.63;62.40;95522.34;1717978;83;21053;-67
2021/01/23 04:01:28;;;;;;;2.70;2.30;;;;;;;7.60;62.45;95521.28;1703660;83;22364;-67
2021/01/23 04:03:55;;;;;;;4.25;3.35;;;;;;;7.61;62.40;95524.20;1702496;81;21589;-67
2021/01/23 04:06:23;;;;;;;7.58;4.25;;;;;;;7.64;62.48;95525.26;1717488;82;21595;-67
2021/01/23 04:08:51;;;;;;;6.05;3.22;;;;;;;7.69;62.38;95528.31;1697754;81;21172;-65
2021/01/23 04:11:19;;;;;;;6.30;3.10;;;;;;;7.71;62.27;95527.75;1714770;83;21081;-68
2021/01/23 04:13:47;;;;;;;6.85;4.08;;;;;;;7.73;62.20;95525.05;1693064;83;21364;-68
2021/01/23 04:16:14;;;;;;;5.03;3.72;;;;;;;7.74;62.20;95531.84;1750972;82;21592;-67
2021/01/23 04:18:43;;;;;;;5.97;4.03;;;;;;;7.76;62.08;95522.69;1734330;80;21105;-67
2021/01/23 04:21:11;;;;;;;8.28;4.60;;;;;;;7.77;62.05;95521.76;1743299;81;21082;-67
2021/01/23 04:23:39;;;;;;;7.72;3.60;;;;;;;7.75;62.02;95527.04;1747847;82;21053;-68
2021/01/23 04:26:07;;;;;;;5.72;4.03;;;;;;;7.74;62.09;95524.91;1735697;82;21155;-67
2021/01/23 04:28:35;;;;;;;8.60;5.17;;;;;;;7.73;62.03;95516.83;1724454;82;21602;-66
2021/01/23 04:31:03;;;;;;;8.65;6.15;;;;;;;7.70;61.87;95515.77;1723682;82;21146;-68
2021/01/23 04:33:32;;;;;;;10.08;5.30;;;;;;;7.65;61.93;95514.48;1732365;82;21069;-68
2021/01/23 04:35:59;;;;;;;9.98;6.33;;;;;;;7.58;62.22;95521.03;1720570;82;21576;-67
2021/01/23 04:38:28;;;;;;;32.23;17.52;;;;;;;7.51;62.41;95522.77;1731715;82;21118;-66
2021/01/23 04:40:56;;;;;;;35.17;18.75;;;;;;;7.49;62.57;95525.95;1709529;83;21144;-67
2021/01/23 04:43:24;;;;;;;28.32;14.70;;;;;;;7.50;62.52;95523.73;1755428;81;21129;-65
2021/01/23 04:45:52;;;;;;;16.77;7.93;;;;;;;7.49;62.43;95529.01;1726675;81;21064;-67
2021/01/23 04:48:20;;;;;;;23.22;11.70;;;;;;;7.45;62.69;95527.13;1709945;83;21949;-67
2021/01/23 04:50:48;;;;;;;17.92;10.08;;;;;;;7.49;62.11;95523.84;1716646;83;21483;-66
2021/01/23 04:53:17;;;;;;;18.40;11.20;;;;;;;7.48;62.49;95519.16;1715385;81;21169;-67
2021/01/23 04:55:45;;;;;;;29.23;16.40;;;;;;;7.47;62.55;95521.38;1697019;83;21133;-67
2021/01/23 04:58:12;;;;;;;34.20;19.15;;;;;;;7.47;62.59;95517.51;1740262;82;21173;-66
2021/01/23 05:00:40;;;;;;;35.65;19.87;;;;;;;7.40;62.65;95511.17;1737015;81;21689;-67
2021/01/23 05:03:08;;;;;;;38.30;21.52;;;;;;;7.38;62.81;95516.90;1748880;80;21705;-67
2021/01/23 05:05:36;;;;;;;35.52;20.10;;;;;;;7.41;62.70;95521.02;1742312;81;21140;-67
2021/01/23 05:08:12;;;;;;;28.23;17.02;;;;;;;7.41;62.67;95523.12;1726040;81;21155;-67
2021/01/23 05:10:41;;;;;;;26.65;16.10;;;;;;;7.42;62.50;95515.74;1715575;82;21497;-67
2021/01/23 05:13:17;;;;;;;23.10;13.53;;;;;;;7.40;62.46;95514.20;1713406;83;21089;-67
2021/01/23 05:15:45;;;;;;;16.25;10.50;;;;;;;7.39;62.36;95515.16;1713477;82;21950;-67
2021/01/23 05:18:14;;;;;;;16.87;9.53;;;;;;;7.37;62.33;95518.66;1717727;82;21221;-67
2021/01/23 05:20:48;;;;;;;17.50;8.88;;;;;;;7.36;62.29;95517.48;1725018;82;21078;-68
2021/01/23 05:23:30;;;;;;;12.58;7.78;;;;;;;7.34;62.24;95515.50;1743083;82;21177;-67
2021/01/23 05:26:00;;;;;;;17.90;11.00;;;;;;;7.32;62.29;95513.03;1736985;82;21565;-68
2021/01/23 05:28:36;;;;;;;13.20;7.78;;;;;;;7.28;62.24;95528.38;1715928;82;21386;-68
2021/01/23 05:31:07;;;;;;;12.00;7.87;;;;;;;7.23;62.28;95531.77;1726308;82;21149;-67
2021/01/23 05:33:35;;;;;;;13.13;6.75;;;;;;;7.13;62.27;95539.36;1731507;82;21149;-66
2021/01/23 05:36:07;;;;;;;10.82;6.12;;;;;;;7.03;62.58;95522.92;1744786;81;22043;-66
2021/01/23 05:38:43;;;;;;;10.98;6.95;;;;;;;7.04;62.79;95527.60;1754738;81;21134;-67
2021/01/23 05:41:13;;;;;;;8.95;6.00;;;;;;;7.06;62.86;95530.44;1733720;81;22628;-66
2021/01/23 05:43:48;;;;;;;14.83;8.65;;;;;;;7.09;62.90;95522.92;1735980;81;21061;-67
2021/01/23 05:46:29;;;;;;;12.63;6.00;;;;;;;7.12;62.50;95529.99;1725416;83;21163;-65
2021/01/23 05:48:57;;;;;;;12.80;7.10;;;;;;;7.13;62.59;95528.23;1742356;80;21066;-67
2021/01/23 05:51:25;;;;;;;10.23;6.35;;;;;;;7.14;62.94;95526.83;1725737;83;21135;-67
2021/01/23 05:53:53;;;;;;;12.60;6.95;;;;;;;7.12;62.88;95524.84;1725303;81;21215;-67
2021/01/23 05:56:21;;;;;;;9.95;6.50;;;;;;;7.11;62.91;95521.08;1726719;81;21165;-65
2021/01/23 05:58:49;;;;;;;10.17;6.53;;;;;;;7.11;62.67;95527.05;1748063;81;21078;-67
2021/01/23 06:01:22;;;;;;;8.88;4.78;;;;;;;7.12;62.55;95531.28;1744877;81;21082;-66
2021/01/23 06:03:52;;;;;;;11.75;7.83;;;;;;;7.09;62.79;95529.38;1715960;81;21155;-66
2021/01/23 06:06:20;;;;;;;8.85;5.22;;;;;;;7.00;62.29;95527.01;1731883;81;22132;-67
2021/01/23 06:08:50;;;;;;;10.40;5.47;;;;;;;6.83;63.15;95522.28;1725955;81;21079;-67
2021/01/23 06:11:25;;;;;;;5.25;3.72;;;;;;;6.73;63.30;95529.38;1731120;81;21786;-67
2021/01/23 06:13:58;;;;;;;6.87;3.80;;;;;;;6.67;63.63;95536.26;1742756;80;21200;-67
2021/01/23 06:16:36;;;;;;;12.15;5.50;;;;;;;6.69;63.75;95532.28;1746165;81;21122;-67
2021/01/23 06:19:15;;;;;;;8.03;4.70;;;;;;;6.90;63.37;95531.20;1741814;81;21363;-66
2021/01/23 06:21:48;;;;;;;7.33;4.10;;;;;;;7.27;62.46;95527.19;1725479;82;21219;-67
2021/01/23 06:24:17;;;;;;;5.90;3.50;;;;;;;7.65;61.49;95532.55;1720066;81;21141;-67
2021/01/23 06:26:58;;;;;;;6.53;4.40;;;;;;;7.95;60.63;95536.31;1739731;80;21158;-66
2021/01/23 06:29:42;;;;;;;10.13;5.35;;;;;;;8.23;59.83;95537.10;1727974;81;21113;-67
2021/01/23 06:32:22;;;;;;;13.58;9.60;;;;;;;8.77;58.89;95539.84;1736781;81;21597;-67
2021/01/23 06:34:57;;;;;;;14.45;9.58;;;;;;;9.49;57.20;95530.53;1739639;81;21491;-68
2021/01/23 06:37:39;;;;;;;8.48;6.60;;;;;;;9.97;55.77;95527.37;1745277;81;21117;-67
2021/01/23 06:40:14;;;;;;;15.43;9.63;;;;;;;10.14;54.99;95520.26;1750928;81;21050;-67
2021/01/23 06:42:49;;;;;;;19.35;13.60;;;;;;;10.14;53.82;95528.03;1735193;81;21065;-67
2021/01/23 06:45:21;;;;;;;27.87;17.40;;;;;;;9.85;54.19;95522.77;1746641;81;21362;-64
2021/01/23 06:47:55;;;;;;;28.85;17.15;;;;;;;9.90;54.35;95532.27;1748116;81;21505;-66
2021/01/23 06:50:43;;;;;;;18.40;11.10;;;;;;;10.16;53.73;95524.50;1735722;81;21145;-67
2021/01/23 06:53:22;;;;;;;21.97;12.20;;;;;;;10.50;52.57;95524.55;1743806;81;21097;-67
2021/01/23 06:55:56;;;;;;;27.77;14.45;;;;;;;10.69;51.80;95521.66;1734718;81;21153;-69
2021/01/23 06:58:29;;;;;;;24.60;14.60;;;;;;;10.59;52.16;95512.56;1729139;81;21471;-68
2021/01/23 07:00:59;;;;;;;23.02;13.95;;;;;;;10.64;52.33;95510.84;1731872;81;21148;-67
2021/01/23 07:03:28;;;;;;;19.05;12.70;;;;;;;10.81;51.99;95508.07;1754650;81;21105;-67
2021/01/23 07:05:59;;;;;;;18.92;12.75;;;;;;;10.99;51.37;95500.42;1732770;81;21635;-68
2021/01/23 07:08:36;;;;;;;18.23;10.08;;;;;;;11.07;51.07;95495.82;1727651;83;21081;-67
2021/01/23 07:11:17;;;;;;;14.18;9.30;;;;;;;11.08;51.17;95498.28;1702387;81;21291;-66
2021/01/23 07:14:06;;;;;;;8.40;5.00;;;;;;;11.08;50.93;95500.06;1753755;80;21117;-66
2021/01/23 07:16:37;;;;;;;10.82;7.12;;;;;;;10.94;50.61;95492.23;1728553;81;21081;-67
2021/01/23 07:19:08;;;;;;;12.05;7.58;;;;;;;10.57;51.57;95491.11;1732749;82;21157;-67
2021/01/23 07:21:40;;;;;;;10.25;6.70;;;;;;;10.43;52.15;95486.33;1727702;81;21127;-66
2021/01/23 07:24:09;;;;;;;9.40;7.10;;;;;;;10.50;52.07;95488.23;1700813;82;21207;-66
2021/01/23 07:26:39;;;;;;;14.43;7.05;;;;;;;10.54;52.23;95491.38;1728829;81;21092;-66
2021/01/23 07:29:09;;;;;;;8.75;6.17;;;;;;;10.64;52.10;95487.48;1727438;82;21165;-65
2021/01/23 07:31:37;;;;;;;14.15;8.98;;;;;;;10.75;51.74;95492.55;1728025;82;21191;-66
2021/01/23 07:34:12;;;;;;;15.68;11.25;;;;;;;10.72;51.89;95498.50;1727372;81;21124;-67
2021/01/23 07:36:43;;;;;;;14.68;10.45;;;;;;;10.79;51.88;95503.47;1730017;82;21376;-66
2021/01/23 07:39:13;;;;;;;16.25;10.93;;;;;;;10.85;51.68;95500.34;1711211;81;21108;-68
2021/01/23 07:41:49;;;;;;;15.18;11.10;;;;;;;10.92;51.53;95491.07;1713582;81;21117;-66
2021/01/23 07:44:18;;;;;;;14.20;9.20;;;;;;;10.96;51.43;95487.72;1667521;84;21518;-67
2021/01/23 07:46:47;;;;;;;11.75;8.93;;;;;;;10.98;50.94;95489.69;1700125;83;22376;-67
2021/01/23 07:49:28;;;;;;;11.50;8.18;;;;;;;10.69;51.45;95485.34;1725829;83;21311;-67
2021/01/23 07:52:06;;;;;;;9.58;6.60;;;;;;;10.45;52.10;95478.75;1726558;83;21166;-67
2021/01/23 07:54:49;;;;;;;10.72;6.55;;;;;;;10.43;52.32;95478.55;1726756;83;21599;-66
2021/01/23 07:57:17;;;;;;;10.13;6.78;;;;;;;10.42;52.41;95479.01;1726592;83;21082;-67
2021/01/23 07:59:45;;;;;;;11.28;6.37;;;;;;;10.41;52.54;95474.80;1724969;81;21140;-66
2021/01/23 08:02:17;;;;;;;13.03;8.43;;;;;;;10.45;52.60;95474.05;1725938;81;22342;-67
2021/01/23 08:04:50;;;;;;;13.22;9.83;;;;;;;10.54;52.70;95469.81;1701213;83;21133;-65
2021/01/23 08:07:25;;;;;;;19.02;10.75;;;;;;;10.55;52.60;95472.76;1723527;83;21089;-65
2021/01/23 08:10:16;;;;;;;12.60;8.03;;;;;;;10.52;52.71;95481.62;1724120;83;21164;-66
2021/01/23 08:12:58;;;;;;;10.30;6.50;;;;;;;10.47;52.35;95479.91;1700295;83;21153;-64
2021/01/23 08:15:28;;;;;;;15.18;10.63;;;;;;;10.32;52.45;95471.70;1723384;81;22026;-67
2021/01/23 08:17:56;;;;;;;16.77;10.03;;;;;;;10.33;52.87;95476.40;1725183;82;21157;-66
2021/01/23 08:20:33;;;;;;;;;;;;;;;10.33;52.92;95478.99;1711346;84;21151;-66
2021/01/23 08:23:11;;;;;;;24.95;16.27;;;;;;;10.27;53.16;95475.95;1712454;82;20374;-65
2021/01/23 08:25:55;;;;;;;29.18;17.20;;;;;;;10.30;53.32;95465.81;1713964;81;21135;-67
2021/01/23 08:28:46;;;;;;;26.82;14.73;;;;;;;10.34;53.26;95472.38;1704717;82;21395;-67
2021/01/23 08:31:19;;;;;;;26.90;16.27;;;;;;;10.44;53.17;95468.50;1704662;82;21180;-66
2021/01/23 08:33:54;;;;;;;29.85;18.20;;;;;;;10.56;53.05;95476.52;1705238;82;21080;-67
2021/01/23 08:36:20;;;;;;;36.42;20.65;;;;;;;10.68;52.90;95472.83;1723140;81;21133;-65
2021/01/23 08:39:04;;;;;;;36.33;21.62;;;;;;;10.75;52.94;95470.50;1711369;82;21061;-67
2021/01/23 08:41:35;;;;;;;33.95;20.43;;;;;;;10.84;52.75;95476.17;1718870;82;21204;-66
2021/01/23 08:44:05;;;;;;;34.92;19.42;;;;;;;10.92;52.52;95469.47;1727618;82;21581;-66
2021/01/23 08:46:33;;;;;;;31.10;18.30;;;;;;;10.97;52.35;95464.22;1707296;82;21175;-67
2021/01/23 08:49:02;;;;;;;36.00;20.70;;;;;;;11.03;52.24;95457.64;1674971;82;21644;-64
2021/01/23 08:51:33;;;;;;;36.15;19.30;;;;;;;11.11;52.20;95457.77;1722867;81;21038;-67
2021/01/23 08:54:01;;;;;;;26.12;17.15;;;;;;;11.15;51.92;95455.25;1764328;81;22251;-67
2021/01/23 08:56:32;;;;;;;18.95;10.30;;;;;;;11.08;51.77;95463.23;1723595;81;21161;-67
2021/01/23 08:59:01;;;;;;;15.30;9.48;;;;;;;10.86;51.69;95463.06;1724683;80;21488;-68
2021/01/23 09:01:30;;;;;;;;;;;;;;;10.58;52.25;95458.23;1740832;81;21084;-65
2021/01/23 09:04:00;;;;;;;8.38;4.50;;;;;;;10.42;52.70;95450.97;1711109;82;20241;-68
2021/01/23 09:06:28;;;;;;;4.65;3.10;;;;;;;10.36;52.68;95448.45;1704584;84;21219;-67
2021/01/23 09:09:00;;;;;;;5.92;2.95;;;;;;;10.36;52.35;95444.56;1720801;82;21188;-67
2021/01/23 09:11:28;;;;;;;4.55;3.20;;;;;;;10.35;52.42;95440.81;1683432;82;21068;-66
2021/01/23 09:13:57;;;;;;;6.78;3.10;;;;;;;10.37;52.14;95446.67;1692057;82;21148;-66
2021/01/23 09:16:25;;;;;;;6.15;3.60;;;;;;;10.35;52.26;95438.22;1708983;82;21128;-67
2021/01/23 09:18:57;;;;;;;8.18;3.37;;;;;;;10.28;52.30;95441.31;1696844;82;22138;-65
2021/01/23 09:21:25;;;;;;;4.10;2.85;;;;;;;10.25;52.51;95432.50;1664923;84;21221;-66
2021/01/23 09:23:53;;;;;;;7.25;4.00;;;;;;;10.22;52.63;95434.55;1692309;82;21176;-66
2021/01/23 09:26:23;;;;;;;7.17;3.55;;;;;;;10.19;52.83;95438.22;1731140;81;21085;-66
2021/01/23 09:28:51;;;;;;;4.28;3.10;;;;;;;10.17;52.84;95428.95;1706304;82;21545;-67
2021/01/23 09:31:20;;;;;;;6.58;3.50;;;;;;;10.17;52.82;95431.05;1714889;83;22257;-67
2021/01/23 09:33:50;;;;;;;4.62;3.20;;;;;;;10.20;53.01;95427.39;1716958;83;21093;-68
2021/01/23 09:36:21;;;;;;;6.10;3.60;;;;;;;10.22;52.79;95419.80;1725819;83;21077;-66
2021/01/23 09:38:50;;;;;;;10.05;4.87;;;;;;;10.26;52.54;95422.48;1693889;83;21074;-68
2021/01/23 09:41:20;;;;;;;9.35;5.78;;;;;;;10.32;52.61;95418.55;1707292;81;21497;-66
2021/01/23 09:43:49;;;;;;;11.95;6.55;;;;;;;10.37;52.46;95422.84;1696778;83;22142;-68
2021/01/23 09:46:21;;;;;;;17.77;9.58;;;;;;;10.38;52.53;95418.47;1704385;83;21537;-66
2021/01/23 09:48:53;;;;;;;15.03;6.75;;;;;;;10.43;52.44;95413.23;1696884;82;21093;-66
2021/01/23 09:51:23;;;;;;;12.00;6.08;;;;;;;10.53;52.16;95407.24;1707673;81;21609;-68
2021/01/23 09:53:51;;;;;;;9.55;5.53;;;;;;;10.60;51.95;95408.33;1722886;81;21093;-65
2021/01/23 09:56:21;;;;;;;13.75;6.83;;;;;;;10.65;51.78;95411.32;1719158;82;21371;-67
2021/01/23 09:58:50;;;;;;;12.80;6.90;;;;;;;10.67;51.63;95417.18;1674541;82;21147;-67
2021/01/23 10:01:20;;;;;;;13.10;5.72;;;;;;;10.67;51.70;95410.23;1734163;82;21081;-66
2021/01/23 10:03:48;;;;;;;9.78;5.30;;;;;;;10.70;51.71;95417.40;1727116;80;21058;-66
2021/01/23 10:06:16;;;;;;;8.00;5.28;;;;;;;10.71;51.70;95408.19;1713379;82;21132;-68
2021/01/23 10:08:44;;;;;;;9.10;4.62;;;;;;;10.78;51.72;95404.55;1696467;84;21212;-67
2021/01/23 10:11:12;;;;;;;8.68;5.22;;;;;;;10.90;51.50;95394.34;1705236;82;21434;-68
2021/01/23 10:13:41;;;;;;;9.13;4.90;;;;;;;11.02;51.20;95390.65;1709803;83;21077;-66
2021/01/23 10:16:10;;;;;;;9.95;4.75;;;;;;;11.12;51.20;95382.84;1725706;82;21072;-67
2021/01/23 10:18:40;;;;;;;7.97;4.00;;;;;;;11.22;51.10;95385.41;1698613;83;21497;-67
2021/01/23 10:21:09;;;;;;;6.78;4.53;;;;;;;11.29;50.67;95393.45;1693345;83;22020;-67
2021/01/23 10:23:37;;;;;;;8.15;5.22;;;;;;;11.28;50.71;95387.41;1702598;83;21168;-66
2021/01/23 10:26:05;;;;;;;11.08;5.22;;;;;;;11.29;50.90;95385.16;1712509;83;21098;-67
2021/01/23 10:28:33;;;;;;;6.37;4.00;;;;;;;11.39;50.79;95377.34;1703936;84;21207;-67
2021/01/23 10:31:02;;;;;;;8.55;4.33;;;;;;;11.48;50.63;95373.90;1733999;82;21076;-65
2021/01/23 10:33:31;;;;;;;5.15;3.90;;;;;;;11.59;50.45;95378.06;1727316;81;21498;-69
2021/01/23 10:36:00;;;;;;;7.15;4.15;;;;;;;11.65;50.30;95383.99;1698919;82;21160;-65
2021/01/23 10:38:29;;;;;;;5.80;3.98;;;;;;;11.76;50.15;95379.91;1729358;82;21192;-61
2021/01/23 10:40:57;;;;;;;5.10;3.60;;;;;;;11.91;49.76;95387.22;1708224;83;21149;-63
2021/01/23 10:43:26;;;;;;;5.22;4.00;;;;;;;11.98;49.27;95380.98;1692698;83;21132;-63
2021/01/23 10:45:55;;;;;;;6.35;4.10;;;;;;;12.03;49.27;95382.16;1701533;83;22208;-63
2021/01/23 10:48:24;;;;;;;6.45;3.60;;;;;;;12.08;48.68;95383.84;1686838;83;21600;-64
2021/01/23 10:50:53;;;;;;;;;;;;;;;12.09;48.94;95375.09;1720701;81;21466;-65
2021/01/23 10:53:20;;;;;;;6.22;3.85;;;;;;;12.25;48.89;95377.50;1725502;80;20987;-62
2021/01/23 10:55:50;;;;;;;7.67;4.00;;;;;;;12.43;48.38;95384.81;1701219;83;21517;-61
2021/01/23 10:58:21;;;;;;;10.50;5.15;;;;;;;12.56;48.16;95384.44;1665416;84;22252;-63
2021/01/23 11:00:49;;;;;;;7.90;4.00;;;;;;;12.68;47.93;95375.91;1745239;81;21109;-61
2021/01/23 11:03:18;;;;;;;10.93;6.03;;;;;;;12.73;47.75;95367.19;1681079;82;21113;-61
2021/01/23 11:05:46;;;;;;;7.60;4.83;;;;;;;12.82;47.57;95362.85;1741209;82;21534;-61
2021/01/23 11:08:14;;;;;;;5.50;4.28;;;;;;;12.81;47.38;95362.04;1709723;82;21127;-62
2021/01/23 11:10:44;;;;;;;9.95;5.85;;;;;;;12.79;47.49;95350.13;1707592;82;21222;-62
2021/01/23 11:13:13;;;;;;;9.18;5.78;;;;;;;12.73;47.37;95351.58;1733927;82;21589;-62
2021/01/23 11:15:41;;;;;;;11.40;7.12;;;;;;;12.58;47.73;95333.09;1730581;81;21499;-61
2021/01/23 11:18:09;;;;;;;11.55;6.42;;;;;;;12.43;47.99;95337.17;1731086;81;21212;-62
2021/01/23 11:20:37;;;;;;;11.40;6.80;;;;;;;12.32;48.30;95335.64;1721122;82;21127;-61
2021/01/23 11:23:05;;;;;;;9.48;5.85;;;;;;;12.33;48.32;95332.89;1731884;82;21338;-62
2021/01/23 11:25:33;;;;;;;12.63;6.60;;;;;;;12.56;47.87;95332.40;1689092;83;21208;-61
2021/01/23 11:28:00;;;;;;;9.35;6.45;;;;;;;12.77;47.73;95321.66;1705967;82;21077;-63
2021/01/23 11:30:28;;;;;;;10.82;6.78;;;;;;;13.10;47.15;95318.44;1731690;82;21929;-64
2021/01/23 11:32:56;;;;;;;10.10;5.22;;;;;;;13.47;46.00;95329.03;1703669;82;21168;-61
2021/01/23 11:35:25;;;;;;;17.92;6.25;;;;;;;13.65;45.33;95326.34;1713638;82;21277;-67
2021/01/23 11:37:53;;;;;;;11.12;5.40;;;;;;;13.78;45.41;95315.80;1710893;82;21719;-63
2021/01/23 11:40:21;;;;;;;11.23;5.93;;;;;;;14.03;44.56;95304.58;1705851;82;21117;-59
2021/01/23 11:42:49;;;;;;;8.68;5.90;;;;;;;14.10;44.45;95304.28;1713028;81;21323;-62
2021/01/23 11:45:19;;;;;;;10.48;5.47;;;;;;;14.17;44.19;95302.15;1713865;82;21068;-63
2021/01/23 11:47:48;;;;;;;9.05;5.70;;;;;;;14.18;44.02;95296.47;1712228;82;21385;-62
2021/01/23 11:50:16;;;;;;;;;;;;;;;14.11;43.96;95304.13;1714414;82;21210;-62
2021/01/23 11:52:43;;;;;;;7.35;3.58;;;;;;;13.97;42.41;95309.47;1716326;82;20270;-63